BFP weather

Beaver County Airport
Beaver Falls, Pennsylvania, United States

Public forecast

Using degrees Fahrenheit for public forecast. Weather courtesy of forecast.io.

METAR (pilot weather report)

Report is more than 2 hours old.

Retrieved 2019/04/19 19:47 UTC (4 hours ago):

KBVI 191947Z 15005KT 4SM RA SCT011 BKN020 OVC029 17/15 A2956 RMK LAST. RWY 10 IN USE

TAF (pilot weather forecast)

Retrieved 2019/04/19 18:24 UTC (5 hours ago):

TAF KBVI 191722Z 1918/2018 20014G22KT P6SM VCSH BKN050 TEMPO 1920/1923 2SM SHRA BKN025 FM200100 07010KT P6SM VCSH OVC035 FM201400 19014G20KT P6SM BKN050